Time;durP1;ratioP1;P1;durP2;ratioP2;P2;SDS_P1;SDS_P2;PMS_P1;PMS_P2;Temp;Humidity;BMP_temperature;BMP_pressure;BME280_temperature;BME280_humidity;BME280_pressure;Samples;Min_cycle;Max_cycle;Signal;HPM_P1;HPM_P2
2021/12/12 00:02:32;;;;;;;2.17;0.95;;;20.40;80.30;;;;;;5051921;28;20637;-80
2021/12/12 00:05:06;;;;;;;1.02;0.90;;;20.40;80.30;;;;;;5051687;28;20021;-80
2021/12/12 00:08:10;;;;;;;7.43;1.80;;;20.30;80.30;;;;;;5050977;28;20028;-80
2021/12/12 00:10:57;;;;;;;3.60;1.00;;;20.30;80.30;;;;;;5051829;28;20021;-81
2021/12/12 00:13:33;;;;;;;2.67;0.82;;;20.30;80.40;;;;;;5050159;28;20036;-80
2021/12/12 00:16:00;;;;;;;2.78;1.30;;;20.30;80.50;;;;;;5049875;28;20025;-80
2021/12/12 00:18:27;;;;;;;4.22;1.13;;;20.30;80.60;;;;;;5051795;28;20017;-80
2021/12/12 00:21:33;;;;;;;4.90;0.98;;;20.30;80.60;;;;;;5050643;28;20116;-80
2021/12/12 00:24:37;;;;;;;4.55;0.82;;;20.30;80.50;;;;;;5080301;28;20087;-81
2021/12/12 00:27:44;;;;;;;2.45;1.15;;;20.30;80.60;;;;;;5070474;28;20484;-80
2021/12/12 00:30:50;;;;;;;3.83;1.25;;;20.20;80.60;;;;;;5068990;28;20044;-80
2021/12/12 00:33:57;;;;;;;1.73;0.70;;;20.20;80.60;;;;;;5070754;28;20386;-79
2021/12/12 00:37:03;;;;;;;4.72;1.20;;;20.20;80.60;;;;;;5071551;28;20560;-79
2021/12/12 00:39:33;;;;;;;2.45;1.05;;;20.20;80.60;;;;;;5070835;28;20036;-81
2021/12/12 00:42:40;;;;;;;3.30;1.00;;;20.20;80.80;;;;;;5070001;28;20035;-80
2021/12/12 00:45:46;;;;;;;2.42;0.80;;;20.10;80.60;;;;;;5071357;28;20028;-81
2021/12/12 00:48:52;;;;;;;5.30;1.27;;;20.10;80.80;;;;;;5071167;28;20071;-82
2021/12/12 00:51:27;;;;;;;2.38;0.80;;;20.10;80.80;;;;;;5068551;28;20040;-80
2021/12/12 00:53:55;;;;;;;3.22;1.23;;;20.10;80.70;;;;;;5070983;28;20052;-78
2021/12/12 00:56:22;;;;;;;2.70;0.88;;;20.10;80.80;;;;;;5070037;28;20447;-79
2021/12/12 00:58:49;;;;;;;3.47;1.30;;;20.10;80.70;;;;;;5070596;28;20047;-77
2021/12/12 01:01:28;;;;;;;2.83;1.40;;;20.10;80.70;;;;;;5070510;28;20025;-81
2021/12/12 01:04:04;;;;;;;3.00;1.27;;;20.10;80.70;;;;;;5066008;28;20430;-80
2021/12/12 01:07:10;;;;;;;6.60;1.35;;;20.00;80.80;;;;;;5070906;28;20017;-78
2021/12/12 01:09:41;;;;;;;5.95;1.10;;;20.00;80.80;;;;;;5070398;28;20019;-80
2021/12/12 01:12:12;;;;;;;1.73;1.00;;;20.00;80.90;;;;;;5069658;28;20055;-80
2021/12/12 01:15:18;;;;;;;2.55;1.15;;;20.00;80.80;;;;;;5069034;28;20431;-81
2021/12/12 01:18:24;;;;;;;2.58;1.50;;;20.00;80.70;;;;;;5069430;28;20033;-80
2021/12/12 01:21:30;;;;;;;1.30;0.70;;;20.00;81.20;;;;;;5069814;28;20067;-79
2021/12/12 01:24:45;;;;;;;1.55;0.70;;;20.00;80.60;;;;;;5071340;28;20089;-80
2021/12/12 01:27:51;;;;;;;1.75;1.13;;;20.00;80.60;;;;;;5070862;28;20048;-77
2021/12/12 01:30:58;;;;;;;5.03;1.60;;;20.00;80.60;;;;;;5067910;28;20119;-80
2021/12/12 01:34:10;;;;;;;2.53;0.85;;;19.90;80.60;;;;;;5070121;28;20101;-75
2021/12/12 01:40:37;;;;;;;2.15;0.93;;;19.90;80.70;;;;;;5050124;28;20472;-75
2021/12/12 01:43:45;;;;;;;5.95;1.55;;;19.90;80.50;;;;;;5049120;28;20391;-76
2021/12/12 01:46:37;;;;;;;4.43;1.20;;;19.90;80.50;;;;;;5068213;28;20124;-77
2021/12/12 01:49:21;;;;;;;4.50;1.20;;;19.90;80.80;;;;;;5069971;28;20103;-77
2021/12/12 01:51:49;;;;;;;1.67;0.82;;;19.90;80.70;;;;;;5068806;28;20387;-78
2021/12/12 01:54:21;;;;;;;2.03;0.90;;;19.90;80.70;;;;;;5069802;28;20027;-76
2021/12/12 01:56:55;;;;;;;1.42;0.88;;;19.90;80.70;;;;;;5069525;28;20031;-78
2021/12/12 01:59:28;;;;;;;1.48;0.63;;;19.90;80.70;;;;;;5069620;28;20023;-76
2021/12/12 02:02:34;;;;;;;1.70;0.57;;;19.90;80.60;;;;;;5070444;28;20031;-76
2021/12/12 02:05:10;;;;;;;2.08;0.80;;;19.90;80.60;;;;;;5069055;28;20074;-77
2021/12/12 02:07:40;;;;;;;4.15;1.35;;;19.90;80.80;;;;;;5068551;28;20704;-76
2021/12/12 02:10:17;;;;;;;4.22;1.80;;;19.90;80.70;;;;;;5069362;28;20020;-77
2021/12/12 02:12:45;;;;;;;1.92;1.08;;;19.90;80.80;;;;;;5069136;28;20028;-78
2021/12/12 02:15:13;;;;;;;2.08;1.13;;;19.90;80.80;;;;;;5069695;28;20052;-77
2021/12/12 02:17:45;;;;;;;2.38;0.95;;;19.90;80.60;;;;;;5068971;28;20016;-78
2021/12/12 02:20:35;;;;;;;1.35;0.73;;;19.90;80.80;;;;;;5069993;28;20054;-81
2021/12/12 02:23:17;;;;;;;4.00;1.00;;;19.90;80.80;;;;;;5069422;28;20024;-82
2021/12/12 02:36:54;;;;;;;4.60;1.52;;;20.00;80.90;;;;;;5069796;28;20170;-74
2021/12/12 02:39:21;;;;;;;4.28;1.80;;;20.00;81.10;;;;;;5068947;28;20395;-76
2021/12/12 02:41:52;;;;;;;7.93;1.75;;;20.00;81.10;;;;;;5070024;28;20108;-75
2021/12/12 02:44:26;;;;;;;5.13;1.33;;;20.00;80.70;;;;;;5068484;28;20021;-74
2021/12/12 02:46:54;;;;;;;17.33;2.58;;;20.00;80.40;;;;;;5069515;28;20028;-74
2021/12/12 02:49:39;;;;;;;20.52;2.65;;;20.00;80.40;;;;;;5069498;28;20035;-76
2021/12/12 02:52:24;;;;;;;1.67;1.07;;;20.00;80.60;;;;;;5068475;28;20490;-78
2021/12/12 02:54:52;;;;;;;7.43;1.58;;;20.00;80.50;;;;;;5069778;28;20028;-74
2021/12/12 02:57:19;;;;;;;6.57;1.63;;;20.00;80.50;;;;;;5068212;28;20028;-77
2021/12/12 02:59:50;;;;;;;4.40;1.55;;;20.00;80.40;;;;;;5068235;28;20035;-77
2021/12/12 03:02:28;;;;;;;14.25;1.98;;;20.00;80.50;;;;;;5069165;28;20032;-78
2021/12/12 03:04:58;;;;;;;12.90;2.35;;;20.00;80.20;;;;;;5068289;28;20008;-78
2021/12/12 03:07:26;;;;;;;8.85;2.10;;;19.90;80.10;;;;;;5070876;28;20023;-77
2021/12/12 03:09:56;;;;;;;21.50;3.33;;;19.90;80.00;;;;;;5072010;28;20020;-79
2021/12/12 03:12:33;;;;;;;22.05;3.50;;;19.90;80.50;;;;;;5072644;28;20043;-79
2021/12/12 03:15:10;;;;;;;3.60;1.25;;;19.90;80.60;;;;;;5071053;28;20032;-76
2021/12/12 03:17:38;;;;;;;6.55;1.55;;;19.90;80.40;;;;;;5072380;28;20020;-77
2021/12/12 03:20:23;;;;;;;2.80;1.95;;;19.90;80.10;;;;;;5073030;28;20031;-81
2021/12/12 03:23:14;;;;;;;5.32;1.48;;;19.90;80.20;;;;;;5071918;28;20024;-78
2021/12/12 03:25:41;;;;;;;3.90;2.60;;;19.90;80.10;;;;;;5072842;28;20480;-79
2021/12/12 03:28:10;;;;;;;9.55;2.33;;;19.90;80.10;;;;;;5071625;28;20032;-78
2021/12/12 03:30:38;;;;;;;3.00;1.25;;;19.90;80.40;;;;;;5072046;28;20048;-76
2021/12/12 03:33:05;;;;;;;9.00;1.75;;;19.80;80.60;;;;;;5072577;28;20075;-82
2021/12/12 03:35:32;;;;;;;8.68;1.90;;;19.80;80.70;;;;;;5071540;28;20086;-77
2021/12/12 03:38:00;;;;;;;2.92;1.30;;;19.80;80.80;;;;;;5072585;28;20024;-79
2021/12/12 03:40:30;;;;;;;11.10;3.17;;;19.80;81.00;;;;;;5071458;28;20056;-79
2021/12/12 03:43:00;;;;;;;3.47;1.40;;;19.80;81.10;;;;;;5072296;28;20024;-81
2021/12/12 03:45:28;;;;;;;4.97;1.00;;;19.80;81.20;;;;;;5072232;28;20024;-78
2021/12/12 03:47:59;;;;;;;3.95;1.52;;;19.80;81.10;;;;;;5071901;28;20027;-74
2021/12/12 03:50:31;;;;;;;1.88;1.23;;;19.80;81.10;;;;;;5072609;28;20048;-75
2021/12/12 03:52:58;;;;;;;2.05;1.00;;;19.80;81.10;;;;;;5069803;28;20465;-82
2021/12/12 03:55:26;;;;;;;2.33;0.90;;;19.80;81.40;;;;;;5072220;28;20070;-83
2021/12/12 03:57:54;;;;;;;2.13;0.73;;;19.80;81.40;;;;;;5071387;28;20103;-74
2021/12/12 04:00:30;;;;;;;2.65;1.08;;;19.80;81.60;;;;;;5072903;28;20029;-74
2021/12/12 04:02:58;;;;;;;6.20;1.75;;;19.90;81.80;;;;;;5071837;28;20025;-81
2021/12/12 04:05:25;;;;;;;3.20;0.77;;;19.90;81.80;;;;;;5071033;28;20031;-75
2021/12/12 04:07:52;;;;;;;3.70;1.33;;;19.90;82.00;;;;;;5072436;28;20059;-78
2021/12/12 04:10:23;;;;;;;3.30;1.60;;;19.90;82.00;;;;;;5070600;28;20020;-78
2021/12/12 04:12:50;;;;;;;4.72;2.05;;;19.90;81.90;;;;;;5070990;28;20119;-77
2021/12/12 04:15:18;;;;;;;8.65;2.58;;;19.90;81.70;;;;;;5070766;28;20082;-77
2021/12/12 04:17:45;;;;;;;6.15;3.17;;;19.90;81.80;;;;;;5071232;28;20074;-77
2021/12/12 04:20:22;;;;;;;6.13;3.03;;;19.90;81.70;;;;;;5071344;28;20475;-76
2021/12/12 04:22:49;;;;;;;3.40;2.35;;;19.90;81.50;;;;;;5070788;28;20032;-76
2021/12/12 04:25:55;;;;;;;4.10;3.70;;;20.00;81.60;;;;;;5070460;28;20043;-77
2021/12/12 04:28:21;;;;;;;2.72;1.40;;;20.00;81.70;;;;;;5069351;28;20031;-78
2021/12/12 04:30:48;;;;;;;7.00;2.28;;;20.00;82.00;;;;;;5071129;28;20491;-78
2021/12/12 04:33:15;;;;;;;4.03;1.58;;;20.00;82.20;;;;;;5071098;28;20494;-75
2021/12/12 04:35:41;;;;;;;5.20;1.85;;;20.00;82.40;;;;;;5070048;28;20507;-76
2021/12/12 04:38:08;;;;;;;7.15;1.48;;;20.10;82.60;;;;;;5070868;28;20017;-75
2021/12/12 04:40:37;;;;;;;3.45;1.50;;;20.10;82.80;;;;;;5070051;28;20031;-76
2021/12/12 04:43:04;;;;;;;5.97;1.45;;;20.10;82.70;;;;;;5071270;28;20024;-76
2021/12/12 04:45:31;;;;;;;6.38;2.00;;;20.10;82.90;;;;;;5070086;28;20013;-77
2021/12/12 04:51:15;;;;;;;7.95;1.77;;;20.10;83.10;;;;;;5070962;28;20166;-77
2021/12/12 04:54:14;;;;;;;9.13;2.05;;;20.10;83.10;;;;;;5069516;28;20068;-78
2021/12/12 04:56:48;;;;;;;8.25;1.75;;;20.20;83.70;;;;;;5048036;28;20033;-74
2021/12/12 04:59:42;;;;;;;3.43;1.27;;;20.20;83.70;;;;;;5068838;28;20013;-77
2021/12/12 05:02:21;;;;;;;4.22;1.45;;;20.20;83.70;;;;;;5066141;28;20094;-75
2021/12/12 05:05:15;;;;;;;9.88;1.55;;;20.20;83.80;;;;;;5069507;28;20028;-78
2021/12/12 05:08:10;;;;;;;4.68;1.33;;;20.20;83.80;;;;;;5067667;28;20122;-75
2021/12/12 05:10:54;;;;;;;3.25;1.10;;;20.30;84.00;;;;;;5066638;28;20021;-78
2021/12/12 05:13:31;;;;;;;3.25;1.48;;;20.30;84.10;;;;;;5068801;28;20028;-76
2021/12/12 05:16:04;;;;;;;2.72;1.40;;;20.30;84.00;;;;;;5066791;28;20028;-77
2021/12/12 05:18:35;;;;;;;2.55;1.30;;;20.30;84.00;;;;;;5065223;28;20569;-76
2021/12/12 05:21:10;;;;;;;5.93;1.95;;;20.30;84.00;;;;;;5069379;28;20115;-77
2021/12/12 05:23:40;;;;;;;3.67;2.35;;;20.40;84.10;;;;;;5066659;28;20021;-74
2021/12/12 05:26:16;;;;;;;3.85;1.50;;;20.40;84.20;;;;;;5067997;28;20505;-76
2021/12/12 05:28:48;;;;;;;7.75;1.65;;;20.40;84.20;;;;;;5067600;28;20020;-74
2021/12/12 05:31:17;;;;;;;8.95;1.85;;;20.40;84.30;;;;;;5066520;28;20071;-80
2021/12/12 05:33:45;;;;;;;5.65;1.50;;;20.50;84.20;;;;;;5068705;28;20031;-75
2021/12/12 05:36:13;;;;;;;5.53;1.77;;;20.50;84.20;;;;;;5064290;28;20020;-75
2021/12/12 05:38:41;;;;;;;3.70;1.25;;;20.50;84.10;;;;;;5066937;28;20026;-79
2021/12/12 05:41:10;;;;;;;1.90;1.27;;;20.60;84.20;;;;;;5067695;28;20020;-82
2021/12/12 05:43:37;;;;;;;27.33;14.95;;;20.60;84.20;;;;;;5069247;28;20383;-77
2021/12/12 05:46:04;;;;;;;20.63;15.30;;;20.60;84.60;;;;;;5065728;28;20052;-75
2021/12/12 05:48:31;;;;;;;5.50;2.75;;;20.70;84.30;;;;;;5063577;28;20020;-75
2021/12/12 05:51:00;;;;;;;12.02;2.20;;;20.70;84.00;;;;;;5068150;28;20498;-75
2021/12/12 05:53:27;;;;;;;3.78;1.77;;;20.80;83.90;;;;;;5068199;28;20044;-76
2021/12/12 05:55:53;;;;;;;9.40;1.48;;;20.80;83.80;;;;;;5064477;28;20376;-76
2021/12/12 05:58:21;;;;;;;5.05;1.58;;;20.80;84.00;;;;;;5066663;28;20099;-76
2021/12/12 06:01:00;;;;;;;4.53;1.88;;;20.80;84.00;;;;;;5067124;28;20028;-76
2021/12/12 06:03:30;;;;;;;5.07;1.65;;;20.80;84.10;;;;;;5067288;28;20070;-77
2021/12/12 06:05:58;;;;;;;10.38;2.05;;;20.80;84.10;;;;;;5069890;28;20055;-77
2021/12/12 06:08:28;;;;;;;7.15;1.52;;;20.80;84.00;;;;;;5064842;28;20107;-79
2021/12/12 06:10:56;;;;;;;5.15;1.23;;;20.90;83.90;;;;;;5062300;28;20055;-76
2021/12/12 06:13:24;;;;;;;3.97;1.38;;;20.90;83.80;;;;;;5064789;28;20040;-77
2021/12/12 06:15:54;;;;;;;5.75;1.75;;;20.90;83.70;;;;;;5065199;28;20067;-76
2021/12/12 06:18:27;;;;;;;7.53;1.88;;;20.90;83.60;;;;;;5067958;28;20378;-76
2021/12/12 06:20:54;;;;;;;7.38;1.90;;;21.00;83.50;;;;;;5064704;28;20033;-77
2021/12/12 06:23:22;;;;;;;4.18;1.00;;;21.00;83.30;;;;;;5064209;28;20012;-75
2021/12/12 06:25:50;;;;;;;5.82;1.30;;;21.00;83.30;;;;;;5067431;28;20016;-78
2021/12/12 06:28:27;;;;;;;2.10;1.10;;;21.00;83.20;;;;;;5065533;28;20477;-76
2021/12/12 06:30:56;;;;;;;9.05;1.67;;;21.00;83.10;;;;;;5065664;28;20491;-77
2021/12/12 06:33:23;;;;;;;21.13;2.67;;;21.10;83.00;;;;;;5066008;28;20048;-76
2021/12/12 06:35:50;;;;;;;13.35;2.20;;;21.10;83.10;;;;;;5065592;28;20024;-77
2021/12/12 06:38:18;;;;;;;5.03;1.90;;;21.20;83.10;;;;;;5062778;28;20025;-78
2021/12/12 06:40:45;;;;;;;16.05;2.03;;;21.20;83.00;;;;;;5064086;28;20515;-76
2021/12/12 06:43:14;;;;;;;19.75;4.10;;;21.30;82.80;;;;;;5066453;28;20483;-75
2021/12/12 06:45:41;;;;;;;14.60;3.92;;;21.30;82.60;;;;;;5083766;28;20024;-76
2021/12/12 06:48:10;;;;;;;14.45;2.13;;;21.30;82.40;;;;;;5068651;28;20070;-75
2021/12/12 06:50:39;;;;;;;11.18;1.80;;;21.40;82.40;;;;;;5067003;28;20016;-75
2021/12/12 06:53:06;;;;;;;9.50;1.73;;;21.40;82.20;;;;;;5067942;28;20128;-76
2021/12/12 06:55:36;;;;;;;7.50;1.88;;;21.40;82.00;;;;;;5065169;28;20328;-75
2021/12/12 06:58:06;;;;;;;11.63;2.22;;;21.50;81.70;;;;;;5072165;28;20379;-72
2021/12/12 07:00:34;;;;;;;25.38;10.18;;;21.50;81.60;;;;;;5068218;28;20371;-75
2021/12/12 07:03:01;;;;;;;12.45;6.18;;;21.50;81.40;;;;;;5066443;28;20048;-73
2021/12/12 07:05:30;;;;;;;7.88;1.90;;;21.60;81.00;;;;;;5067417;28;20013;-76
2021/12/12 07:07:57;;;;;;;102.25;10.90;;;21.70;80.50;;;;;;5068058;28;20472;-75
2021/12/12 07:10:26;;;;;;;34.40;6.70;;;21.70;80.20;;;;;;5068885;28;20524;-75
2021/12/12 07:12:56;;;;;;;18.58;6.85;;;21.70;79.90;;;;;;5067040;28;20041;-73
2021/12/12 07:15:30;;;;;;;9.75;3.05;;;21.70;79.60;;;;;;5071222;28;20021;-74
2021/12/12 07:17:59;;;;;;;10.38;2.05;;;21.80;79.30;;;;;;5082219;28;20021;-74
2021/12/12 07:20:27;;;;;;;18.60;10.23;;;21.70;78.70;;;;;;5079297;28;20510;-72
2021/12/12 07:22:54;;;;;;;12.75;3.85;;;21.80;78.60;;;;;;5078979;28;20021;-74
2021/12/12 07:25:22;;;;;;;8.30;1.95;;;21.80;79.00;;;;;;5073925;28;20104;-75
2021/12/12 07:27:52;;;;;;;5.28;1.52;;;21.80;78.60;;;;;;5081389;28;20031;-76
2021/12/12 07:30:20;;;;;;;7.13;2.08;;;21.80;78.30;;;;;;5081000;28;20040;-74
2021/12/12 07:32:47;;;;;;;8.20;2.53;;;21.90;78.10;;;;;;5076302;28;20127;-77
2021/12/12 07:35:15;;;;;;;10.70;2.63;;;21.90;78.20;;;;;;5077558;28;20042;-72
2021/12/12 07:37:44;;;;;;;16.50;2.88;;;21.90;78.50;;;;;;5073992;28;20042;-74
2021/12/12 07:40:13;;;;;;;59.17;50.83;;;21.90;77.60;;;;;;5078178;28;20077;-73
2021/12/12 07:42:41;;;;;;;17.98;7.20;;;22.00;77.80;;;;;;5076509;28;20020;-74
2021/12/12 07:45:08;;;;;;;9.52;3.67;;;21.90;77.40;;;;;;5077574;28;20028;-75
2021/12/12 07:47:35;;;;;;;11.05;3.42;;;22.00;77.70;;;;;;5067079;28;20496;-78
2021/12/12 07:50:05;;;;;;;9.52;2.67;;;22.00;77.80;;;;;;5074707;28;20592;-76
2021/12/12 07:52:32;;;;;;;7.10;2.45;;;22.00;77.40;;;;;;5066156;28;20039;-75
2021/12/12 07:55:00;;;;;;;7.13;2.00;;;22.00;77.50;;;;;;5069517;28;20158;-76
2021/12/12 07:57:28;;;;;;;7.43;1.98;;;22.00;76.80;;;;;;5070619;28;20115;-76
2021/12/12 07:59:58;;;;;;;4.88;2.30;;;22.00;77.00;;;;;;5070977;28;20032;-78
2021/12/12 08:02:25;;;;;;;10.52;2.53;;;22.00;77.30;;;;;;5061652;28;20055;-77
2021/12/12 08:04:54;;;;;;;4.25;2.03;;;22.00;77.00;;;;;;5070835;28;20021;-75
2021/12/12 08:07:22;;;;;;;7.68;2.08;;;22.00;77.00;;;;;;5070346;28;20384;-75
2021/12/12 08:09:50;;;;;;;4.38;1.70;;;22.10;76.90;;;;;;5066761;28;20092;-76
2021/12/12 08:12:25;;;;;;;7.38;1.65;;;22.10;76.90;;;;;;5066158;28;20127;-79
2021/12/12 08:14:52;;;;;;;9.38;2.08;;;22.10;76.80;;;;;;5072180;28;20486;-78
2021/12/12 08:17:20;;;;;;;5.25;1.38;;;22.10;76.20;;;;;;5077326;28;20379;-78
2021/12/12 08:19:51;;;;;;;7.45;2.13;;;22.20;75.90;;;;;;5078978;28;20103;-81
2021/12/12 08:22:18;;;;;;;9.93;2.35;;;22.20;75.70;;;;;;5076692;28;20034;-76
2021/12/12 08:24:45;;;;;;;5.30;2.55;;;22.20;75.80;;;;;;5078807;28;20046;-79
2021/12/12 08:27:16;;;;;;;5.55;3.05;;;22.20;75.80;;;;;;5075412;28;20506;-77
2021/12/12 08:29:45;;;;;;;8.13;1.65;;;22.20;75.90;;;;;;5092392;28;20036;-85
2021/12/12 08:32:14;;;;;;;6.05;1.63;;;22.20;75.60;;;;;;5074106;28;20036;-79
2021/12/12 08:34:41;;;;;;;12.75;5.60;;;22.20;75.60;;;;;;5072863;28;20021;-74
2021/12/12 08:37:08;;;;;;;12.50;4.65;;;22.20;75.80;;;;;;5080277;28;20102;-77
2021/12/12 08:39:36;;;;;;;8.60;2.70;;;22.20;76.00;;;;;;5070432;28;20024;-75
2021/12/12 08:42:06;;;;;;;13.45;3.30;;;22.20;75.80;;;;;;5078426;28;20026;-77
2021/12/12 08:44:37;;;;;;;7.93;2.00;;;22.20;76.10;;;;;;5071702;28;20060;-76
2021/12/12 08:47:07;;;;;;;8.18;1.95;;;22.20;76.00;;;;;;5072431;28;20016;-76
2021/12/12 08:49:35;;;;;;;7.10;2.13;;;22.20;76.10;;;;;;5077159;28;20052;-75
2021/12/12 08:52:19;;;;;;;7.32;2.83;;;22.20;75.70;;;;;;5078507;28;20041;-76
2021/12/12 08:54:50;;;;;;;4.33;1.93;;;22.20;75.90;;;;;;5075410;28;20030;-71
2021/12/12 08:57:38;;;;;;;8.23;2.20;;;22.20;76.10;;;;;;5073753;28;20368;-76
2021/12/12 09:00:12;;;;;;;13.13;4.40;;;22.30;76.30;;;;;;5075346;28;20376;-75
2021/12/12 09:02:39;;;;;;;6.95;2.22;;;22.30;75.70;;;;;;5074762;28;20028;-77
2021/12/12 09:05:11;;;;;;;8.13;1.85;;;22.30;76.00;;;;;;5074954;28;20522;-76
2021/12/12 09:07:44;;;;;;;7.22;3.00;;;22.40;75.70;;;;;;5074805;28;20021;-78
2021/12/12 09:10:26;;;;;;;6.45;1.88;;;22.40;75.60;;;;;;5079878;28;20063;-79
2021/12/12 09:13:06;;;;;;;6.80;1.65;;;22.40;75.20;;;;;;5078035;28;20037;-77
2021/12/12 09:15:43;;;;;;;5.18;1.58;;;22.40;75.30;;;;;;5075649;28;20503;-77
2021/12/12 09:18:19;;;;;;;7.43;1.50;;;22.40;75.40;;;;;;5073198;28;20028;-75
2021/12/12 09:21:13;;;;;;;7.60;1.48;;;22.40;75.40;;;;;;5076220;28;20056;-75
2021/12/12 09:23:50;;;;;;;9.70;4.80;;;22.40;75.40;;;;;;5074129;28;20032;-76
2021/12/12 09:26:23;;;;;;;2.75;1.30;;;22.50;74.90;;;;;;5075962;28;20016;-75
2021/12/12 09:28:54;;;;;;;5.10;1.50;;;22.50;75.50;;;;;;5078321;28;20028;-75
2021/12/12 09:31:34;;;;;;;5.97;2.03;;;22.60;74.80;;;;;;5072076;28;20044;-75
2021/12/12 09:34:28;;;;;;;3.85;2.17;;;22.60;74.00;;;;;;5073233;28;20494;-76
2021/12/12 09:37:03;;;;;;;14.02;1.50;;;22.70;74.10;;;;;;5069305;28;20383;-73
2021/12/12 09:39:37;;;;;;;10.50;2.10;;;22.70;74.40;;;;;;5076931;28;20107;-73
2021/12/12 09:42:22;;;;;;;5.40;1.80;;;22.80;73.60;;;;;;5069849;28;20137;-73
2021/12/12 09:45:01;;;;;;;4.60;1.38;;;22.90;73.40;;;;;;5069316;28;20147;-74
2021/12/12 09:51:14;;;;;;;6.63;1.67;;;23.00;72.50;;;;;;5070796;28;20068;-75
2021/12/12 09:51:34;;;;;;;7.22;1.40;;;23.10;71.50;;;;;;5074220;28;20032;-75
2021/12/12 09:54:36;;;;;;;4.13;1.52;;;23.20;72.00;;;;;;5073103;28;20029;-75
2021/12/12 09:57:11;;;;;;;3.50;1.33;;;23.20;70.80;;;;;;5054939;28;20135;-76
2021/12/12 10:00:04;;;;;;;8.48;1.67;;;23.30;70.10;;;;;;5065222;28;20033;-76
2021/12/12 10:02:45;;;;;;;13.65;1.90;;;23.40;70.80;;;;;;5067178;28;20502;-75
2021/12/12 10:05:19;;;;;;;6.53;2.00;;;23.40;71.10;;;;;;5069817;28;20475;-74
2021/12/12 10:07:49;;;;;;;8.27;4.03;;;23.40;70.80;;;;;;5075296;28;20058;-74
2021/12/12 10:10:37;;;;;;;28.90;15.90;;;23.40;70.50;;;;;;5064295;28;20395;-73
2021/12/12 10:13:28;;;;;;;9.55;2.22;;;23.40;70.50;;;;;;5070116;28;20045;-75
2021/12/12 10:16:21;;;;;;;5.18;1.83;;;23.40;71.40;;;;;;5072649;28;20024;-78
2021/12/12 10:19:01;;;;;;;6.78;1.83;;;23.50;71.80;;;;;;5067363;28;20040;-75
2021/12/12 10:21:36;;;;;;;7.38;1.60;;;23.50;72.00;;;;;;5070769;28;20104;-75
2021/12/12 10:24:21;;;;;;;3.05;1.30;;;23.50;71.60;;;;;;5069309;28;20055;-74
2021/12/12 10:27:02;;;;;;;13.77;1.98;;;23.40;71.80;;;;;;5069172;28;20023;-73
2021/12/12 10:29:37;;;;;;;6.97;1.23;;;23.40;71.80;;;;;;5066516;28;20082;-74
2021/12/12 10:32:27;;;;;;;16.23;2.20;;;23.40;70.70;;;;;;5071134;28;20430;-74
2021/12/12 10:35:27;;;;;;;4.63;1.52;;;23.40;71.00;;;;;;5073356;28;20036;-73
2021/12/12 10:38:04;;;;;;;9.95;1.83;;;23.30;71.50;;;;;;5073085;28;20430;-74
2021/12/12 10:40:48;;;;;;;7.60;1.48;;;23.30;71.90;;;;;;5069730;28;20038;-75
2021/12/12 10:43:24;;;;;;;9.40;2.38;;;23.30;71.60;;;;;;5072678;28;20036;-74
2021/12/12 10:45:56;;;;;;;12.55;2.40;;;23.30;71.50;;;;;;5070381;28;20146;-76
2021/12/12 10:48:35;;;;;;;4.28;1.25;;;23.30;71.40;;;;;;5067186;28;20031;-76
2021/12/12 10:51:16;;;;;;;6.32;1.45;;;23.30;71.40;;;;;;5071273;28;20028;-74
2021/12/12 10:53:56;;;;;;;5.78;2.00;;;23.20;71.50;;;;;;5070777;28;20060;-74
2021/12/12 10:56:34;;;;;;;5.47;1.65;;;23.20;71.20;;;;;;5066334;28;20028;-74
2021/12/12 10:59:14;;;;;;;2.75;1.20;;;23.20;70.60;;;;;;5072957;28;20028;-74
2021/12/12 11:01:47;;;;;;;3.25;1.25;;;23.20;70.60;;;;;;5071667;28;20017;-73
2021/12/12 11:04:23;;;;;;;12.30;1.60;;;23.30;69.90;;;;;;5071198;28;20024;-71
2021/12/12 11:07:03;;;;;;;33.55;13.57;;;23.20;68.90;;;;;;5071670;28;20067;-76
2021/12/12 11:09:38;;;;;;;7.18;3.65;;;23.30;69.30;;;;;;5068250;28;20027;-73
2021/12/12 11:12:33;;;;;;;5.90;3.65;;;23.30;68.60;;;;;;5074074;28;20478;-74
2021/12/12 11:15:20;;;;;;;6.43;2.13;;;23.30;67.10;;;;;;5072306;28;20063;-75
2021/12/12 11:18:12;;;;;;;5.00;1.30;;;23.30;67.40;;;;;;5072867;28;20119;-74
2021/12/12 11:20:43;;;;;;;10.27;2.00;;;23.30;67.30;;;;;;5071203;28;20025;-74
2021/12/12 11:23:26;;;;;;;4.45;1.17;;;23.30;67.40;;;;;;5062463;28;20502;-74
2021/12/12 11:26:06;;;;;;;3.15;1.02;;;23.30;67.50;;;;;;5068810;28;20028;-73
2021/12/12 11:28:46;;;;;;;17.17;5.28;;;23.30;68.00;;;;;;5061287;28;20013;-74
2021/12/12 11:31:21;;;;;;;4.25;1.83;;;23.30;68.00;;;;;;5070802;28;20473;-74
2021/12/12 11:33:51;;;;;;;6.40;1.20;;;23.40;68.20;;;;;;5074394;28;20044;-75
2021/12/12 11:36:26;;;;;;;26.15;2.83;;;23.40;68.00;;;;;;5069237;28;20161;-78
2021/12/12 11:39:05;;;;;;;19.52;3.15;;;23.40;68.10;;;;;;5071693;28;20055;-75
2021/12/12 11:41:40;;;;;;;5.95;1.67;;;23.40;68.10;;;;;;5069301;28;20542;-81
2021/12/12 11:44:53;;;;;;;10.35;2.17;;;23.40;67.80;;;;;;5073229;28;20415;-77
2021/12/12 11:47:35;;;;;;;3.88;1.23;;;23.50;67.90;;;;;;5058775;28;20042;-78
2021/12/12 11:50:13;;;;;;;10.07;3.28;;;23.50;67.50;;;;;;5084826;28;20483;-75
2021/12/12 11:53:17;;;;;;;1.85;1.10;;;23.50;67.50;;;;;;5069457;28;20457;-77
2021/12/12 11:55:52;;;;;;;5.90;2.15;;;23.50;67.60;;;;;;5072260;28;20024;-78
2021/12/12 11:58:31;;;;;;;10.70;2.03;;;23.50;67.70;;;;;;5069421;28;20094;-77
2021/12/12 12:01:16;;;;;;;14.52;6.03;;;23.50;67.70;;;;;;5077198;28;20028;-80
2021/12/12 12:04:10;;;;;;;11.98;4.50;;;23.50;67.30;;;;;;5063511;28;20609;-79
2021/12/12 12:06:55;;;;;;;3.85;1.80;;;23.50;67.20;;;;;;5068176;28;20016;-76
2021/12/12 12:09:42;;;;;;;6.25;1.42;;;23.60;67.80;;;;;;5068415;28;20028;-75
2021/12/12 12:12:08;;;;;;;3.40;1.90;;;23.60;68.60;;;;;;5067293;28;20037;-77
2021/12/12 12:15:09;;;;;;;1.85;1.20;;;23.60;68.70;;;;;;5068065;28;20019;-76
2021/12/12 12:18:02;;;;;;;3.80;1.30;;;23.70;68.10;;;;;;5075154;28;20025;-77
2021/12/12 12:20:41;;;;;;;5.95;1.55;;;23.70;67.60;;;;;;5083193;28;20024;-78
2021/12/12 12:23:33;;;;;;;7.57;2.05;;;23.70;67.00;;;;;;5067362;28;20445;-76
2021/12/12 12:29:05;;;;;;;2.67;1.25;;;23.70;66.70;;;;;;5063934;28;20043;-76
2021/12/12 12:31:37;;;;;;;;;;;23.70;66.80;;;;;;5082386;28;20048;-77
2021/12/12 12:34:40;;;;;;;6.63;3.08;;;23.80;67.10;;;;;;5071394;28;20877;-76
2021/12/12 12:37:43;;;;;;;3.65;1.30;;;23.80;66.80;;;;;;5064175;28;20035;-76
2021/12/12 12:40:37;;;;;;;3.22;1.23;;;23.80;66.00;;;;;;5073546;28;20024;-78
2021/12/12 12:43:22;;;;;;;4.47;1.00;;;23.80;65.90;;;;;;5065379;28;20019;-78
2021/12/12 12:46:36;;;;;;;4.85;1.50;;;23.70;66.20;;;;;;5066457;28;20036;-73
2021/12/12 12:49:42;;;;;;;7.80;4.38;;;23.80;66.70;;;;;;5065912;28;20063;-77
2021/12/12 12:52:21;;;;;;;4.28;1.80;;;23.90;66.80;;;;;;5064305;28;20053;-78
2021/12/12 12:55:43;;;;;;;4.82;1.48;;;24.00;66.80;;;;;;5063679;28;20021;-79
2021/12/12 12:58:12;;;;;;;6.78;1.75;;;23.90;66.50;;;;;;5039820;28;20029;-76
2021/12/12 13:00:42;;;;;;;2.78;1.38;;;24.00;66.80;;;;;;5062086;28;20043;-76
2021/12/12 13:03:26;;;;;;;5.32;2.22;;;24.00;66.70;;;;;;5067990;28;20485;-77
2021/12/12 13:06:37;;;;;;;4.45;1.98;;;24.10;66.50;;;;;;5068808;28;20016;-74
2021/12/12 13:09:30;;;;;;;5.47;1.40;;;24.10;66.50;;;;;;5066609;28;20121;-74
2021/12/12 13:12:11;;;;;;;9.50;2.10;;;24.10;66.40;;;;;;5068794;28;20032;-74
2021/12/12 13:14:53;;;;;;;17.45;12.25;;;24.20;66.30;;;;;;5065129;28;20086;-75
2021/12/12 13:17:41;;;;;;;5.93;4.63;;;24.20;66.20;;;;;;5065204;28;20032;-74
2021/12/12 13:20:29;;;;;;;12.75;2.35;;;24.20;66.10;;;;;;5070253;28;20020;-74
2021/12/12 13:23:24;;;;;;;4.28;1.30;;;24.20;66.70;;;;;;5067842;28;20114;-75
2021/12/12 13:26:05;;;;;;;3.40;1.88;;;24.30;66.30;;;;;;5064682;28;20032;-73
2021/12/12 13:29:03;;;;;;;6.45;1.65;;;24.20;65.40;;;;;;5065453;28;20029;-75
2021/12/12 13:31:40;;;;;;;2.78;1.73;;;24.20;65.80;;;;;;5067129;28;20040;-74
2021/12/12 13:34:10;;;;;;;6.18;1.58;;;24.20;65.80;;;;;;5068925;28;20021;-72
2021/12/12 13:36:58;;;;;;;5.28;1.60;;;24.10;65.60;;;;;;5066957;28;20027;-76
2021/12/12 13:39:47;;;;;;;3.13;1.42;;;24.00;66.20;;;;;;5064796;28;20019;-76
2021/12/12 13:42:32;;;;;;;6.80;1.80;;;24.00;66.30;;;;;;5068012;28;20024;-74
2021/12/12 13:45:01;;;;;;;;;;;23.90;66.80;;;;;;5067770;28;20029;-74
2021/12/12 13:47:58;;;;;;;6.93;2.38;;;23.80;67.00;;;;;;5062645;28;19905;-77
2021/12/12 13:51:00;;;;;;;11.52;3.13;;;23.80;67.40;;;;;;5071236;28;20431;-78
2021/12/12 13:54:01;;;;;;;3.58;1.73;;;23.70;67.50;;;;;;5017433;28;20048;-74
2021/12/12 13:57:06;;;;;;;5.10;1.75;;;23.70;67.90;;;;;;5066169;28;20032;-73
2021/12/12 13:59:57;;;;;;;6.63;1.67;;;23.60;68.50;;;;;;5061721;28;20036;-74
2021/12/12 14:02:24;;;;;;;9.02;1.88;;;23.60;68.50;;;;;;5066349;28;20094;-74
2021/12/12 14:05:03;;;;;;;7.32;2.00;;;23.60;68.40;;;;;;5062281;28;20020;-74